Time;durP1;ratioP1;P1;durP2;ratioP2;P2;SDS_P1;SDS_P2;PMS_P1;PMS_P2;Temp;Humidity;BMP_temperature;BMP_pressure;BME280_temperature;BME280_humidity;BME280_pressure;Samples;Min_cycle;Max_cycle;Signal;HPM_P1;HPM_P2
2023/05/13 00:00:16;;;;;;;24.20;15.90;;;;;;;11.79;42.94;101015.82;108032;1288;22020;-78
2023/05/13 00:03:14;;;;;;;21.10;17.30;;;;;;;11.74;42.97;101009.52;108624;1288;22014;-78
2023/05/13 00:06:10;;;;;;;24.90;17.20;;;;;;;11.71;43.15;101011.71;108674;1288;23638;-79
2023/05/13 00:09:06;;;;;;;27.20;19.60;;;;;;;11.66;43.22;101014.84;108576;1288;22506;-79
2023/05/13 00:11:44;;;;;;;22.70;18.60;;;;;;;11.63;43.29;101017.02;108519;1287;23657;-78
2023/05/13 00:14:38;;;;;;;27.00;22.00;;;;;;;11.61;43.45;101018.48;108617;1288;23745;-79
2023/05/13 00:17:37;;;;;;;26.80;20.80;;;;;;;11.57;43.40;101019.46;108519;1288;22014;-78
2023/05/13 00:20:26;;;;;;;26.70;20.30;;;;;;;11.56;43.44;101022.48;108528;1288;22709;-79
2023/05/13 00:23:12;;;;;;;31.80;21.50;;;;;;;11.51;43.58;101025.59;108642;1288;22000;-78
2023/05/13 00:25:49;;;;;;;31.20;22.80;;;;;;;11.48;43.72;101026.89;108569;1286;22789;-79
2023/05/13 00:28:44;;;;;;;29.00;21.50;;;;;;;11.46;43.74;101023.49;108596;1287;22014;-78
2023/05/13 00:31:36;;;;;;;27.50;22.20;;;;;;;11.42;43.78;101024.30;108620;1287;22015;-79
2023/05/13 00:34:12;;;;;;;31.20;21.90;;;;;;;11.39;43.93;101021.26;108499;1282;21994;-79
2023/05/13 00:36:55;;;;;;;25.00;19.60;;;;;;;11.37;43.93;101026.55;107955;1293;22003;-80
2023/05/13 00:39:38;;;;;;;23.60;17.30;;;;;;;11.35;43.95;101026.59;108043;1293;22002;-78
2023/05/13 00:42:39;;;;;;;25.50;17.90;;;;;;;11.27;44.09;101027.89;108240;1293;23151;-79
2023/05/13 00:45:16;;;;;;;18.00;15.90;;;;;;;11.24;44.13;101030.24;108227;1288;22812;-79
2023/05/13 00:48:03;;;;;;;22.60;14.70;;;;;;;11.20;44.21;101023.91;107846;1293;22013;-79
2023/05/13 00:50:57;;;;;;;17.40;15.10;;;;;;;11.16;44.39;101024.37;107994;1293;23059;-79
2023/05/13 00:53:46;;;;;;;16.60;13.80;;;;;;;11.12;44.44;101024.31;108071;1293;21974;-79
2023/05/13 00:56:53;;;;;;;24.10;16.80;;;;;;;11.07;44.49;101027.26;108175;1291;21998;-78
2023/05/13 00:59:40;;;;;;;25.70;18.70;;;;;;;11.05;44.56;101026.61;108259;1291;23758;-78
2023/05/13 01:03:00;;;;;;;24.50;21.50;;;;;;;11.01;44.72;101028.30;108338;1291;21994;-79
2023/05/13 01:06:04;;;;;;;26.90;22.70;;;;;;;10.97;44.88;101028.75;108349;1290;21996;-79
2023/05/13 01:09:13;;;;;;;33.20;25.60;;;;;;;10.95;44.88;101024.79;108159;1294;22463;-79
2023/05/13 01:12:21;;;;;;;27.70;23.20;;;;;;;10.90;44.99;101025.63;108209;1288;22104;-79
2023/05/13 01:15:29;;;;;;;28.30;23.40;;;;;;;10.89;45.03;101025.66;108252;1292;22498;-80
2023/05/13 01:18:38;;;;;;;25.80;18.20;;;;;;;10.86;45.09;101026.29;108139;1295;22327;-79
2023/05/13 01:21:43;;;;;;;22.30;18.50;;;;;;;10.84;45.20;101026.67;108028;1295;22781;-80
2023/05/13 01:24:50;;;;;;;;;;;;;;;;;;;;;
2023/05/13 01:27:35;;;;;;;27.90;20.40;;;;;;;10.82;45.25;101031.10;108163;1292;23725;-79
2023/05/13 01:31:21;;;;;;;24.60;20.20;;;;;;;10.77;45.26;101034.71;108492;1289;24211;-79
2023/05/13 01:34:29;;;;;;;21.90;18.00;;;;;;;10.74;45.39;101033.93;108225;1292;22002;-79
2023/05/13 01:37:29;;;;;;;24.70;19.20;;;;;;;10.71;45.37;101035.73;107994;1294;23090;-81
2023/05/13 01:40:50;;;;;;;;;;;;;;;;;;;;;
2023/05/13 01:43:49;;;;;;;;;;;;;;;;;;;;;
2023/05/13 01:46:42;;;;;;;22.70;14.90;;;;;;;10.63;45.68;101033.02;107841;1295;22013;-79
2023/05/13 01:49:24;;;;;;;21.10;15.50;;;;;;;10.62;45.52;101034.25;107751;1297;22064;-77
2023/05/13 01:52:20;;;;;;;19.00;14.50;;;;;;;10.58;45.70;101035.06;107762;1296;22225;-78
2023/05/13 01:54:56;;;;;;;23.40;15.40;;;;;;;10.55;45.55;101037.91;107826;1291;22030;-78
2023/05/13 01:57:48;;;;;;;18.10;15.00;;;;;;;10.50;45.79;101039.10;108128;1290;22058;-79
2023/05/13 02:00:46;;;;;;;22.60;17.00;;;;;;;10.44;45.92;101039.61;108115;1291;22760;-79
2023/05/13 02:03:36;;;;;;;23.20;18.40;;;;;;;10.39;46.03;101040.93;108351;1291;22463;-78
2023/05/13 02:06:15;;;;;;;26.20;19.40;;;;;;;10.34;46.08;101041.92;107768;1295;22012;-78
2023/05/13 02:08:45;;;;;;;27.60;20.10;;;;;;;10.32;46.24;101042.15;107879;1295;22010;-78
2023/05/13 02:11:15;;;;;;;24.30;19.40;;;;;;;10.29;46.33;101041.70;107999;1284;22018;-79
2023/05/13 02:13:45;;;;;;;26.20;20.30;;;;;;;10.27;46.36;101039.83;107995;1295;23834;-78
2023/05/13 02:16:17;;;;;;;26.00;20.90;;;;;;;10.27;46.50;101042.63;107905;1296;24721;-79
2023/05/13 02:18:48;;;;;;;24.40;19.60;;;;;;;10.25;46.55;101041.82;107991;1292;22326;-78
2023/05/13 02:21:18;;;;;;;28.50;20.60;;;;;;;10.22;46.63;101047.08;108280;1292;22972;-79
2023/05/13 02:23:47;;;;;;;28.50;19.50;;;;;;;10.19;46.72;101044.38;107987;1287;23806;-80
2023/05/13 02:26:16;;;;;;;25.40;19.90;;;;;;;10.20;46.85;101045.94;108562;1286;22046;-79
2023/05/13 02:28:49;;;;;;;24.40;20.60;;;;;;;10.16;46.78;101045.15;108505;1287;23763;-78
2023/05/13 02:31:25;;;;;;;26.10;22.10;;;;;;;10.13;46.73;101045.04;108500;1287;23040;-80
2023/05/13 02:34:29;;;;;;;28.90;22.20;;;;;;;10.09;46.98;101043.06;108509;1287;23152;-79
2023/05/13 02:37:20;;;;;;;35.50;21.70;;;;;;;10.07;47.06;101044.87;108045;1292;23024;-79
2023/05/13 02:40:12;;;;;;;26.70;22.60;;;;;;;10.06;47.10;101042.46;108216;1292;22253;-79
2023/05/13 02:42:58;;;;;;;24.40;20.00;;;;;;;10.04;47.21;101042.67;108069;1289;23100;-80
2023/05/13 02:45:55;;;;;;;29.00;22.60;;;;;;;10.02;47.19;101041.86;108102;1295;23883;-80
2023/05/13 02:48:59;;;;;;;30.70;22.50;;;;;;;9.99;47.28;101043.50;108161;1295;23690;-78
2023/05/13 02:51:47;;;;;;;29.70;21.70;;;;;;;9.95;47.40;101045.65;107955;1296;22658;-81
2023/05/13 02:54:42;;;;;;;29.10;21.70;;;;;;;9.92;47.45;101046.25;107663;1296;22031;-82
2023/05/13 02:57:15;;;;;;;28.50;21.00;;;;;;;9.90;47.50;101048.21;108211;1295;22041;-80
2023/05/13 02:59:54;;;;;;;24.00;19.10;;;;;;;9.90;47.63;101046.66;108081;1295;23649;-80
2023/05/13 03:02:40;;;;;;;25.90;18.50;;;;;;;9.89;47.71;101051.88;108247;1293;21991;-79
2023/05/13 03:05:18;;;;;;;19.70;16.30;;;;;;;9.88;47.86;101053.13;108042;1295;21989;-80
2023/05/13 03:08:05;;;;;;;20.40;13.20;;;;;;;9.85;47.85;101057.73;107684;1298;22030;-78
2023/05/13 03:11:08;;;;;;;15.60;13.50;;;;;;;9.82;47.96;101057.09;107436;1298;22367;-78
2023/05/13 03:13:54;;;;;;;19.80;12.80;;;;;;;9.80;48.00;101057.66;106945;1302;22032;-78
2023/05/13 03:16:25;;;;;;;14.10;9.90;;;;;;;9.77;48.02;101056.00;106594;1306;21883;-79
2023/05/13 03:19:15;;;;;;;13.00;9.50;;;;;;;9.75;48.06;101051.36;106985;1302;22057;-78
2023/05/13 03:21:51;;;;;;;16.80;12.50;;;;;;;9.73;48.30;101053.66;107051;1302;22073;-78
2023/05/13 03:25:08;;;;;;;14.60;12.00;;;;;;;9.70;48.39;101052.14;106771;1305;22024;-78
2023/05/13 03:28:02;;;;;;;18.10;11.70;;;;;;;9.69;48.41;101051.33;106517;1306;22280;-78
2023/05/13 03:30:35;;;;;;;19.60;11.40;;;;;;;9.70;48.53;101048.86;106457;1307;23591;-78
2023/05/13 03:33:14;;;;;;;;;;;;;;;9.73;48.57;101049.33;107234;1301;22110;-78
2023/05/13 03:36:05;;;;;;;15.60;11.40;;;;;;;9.75;48.58;101050.48;107651;1297;23033;-78
2023/05/13 03:39:03;;;;;;;;;;;;;;;;;;;;;
2023/05/13 03:41:51;;;;;;;14.50;10.20;;;;;;;9.81;48.53;101046.17;107636;1296;23735;-76
2023/05/13 03:44:31;;;;;;;11.50;9.60;;;;;;;9.85;48.66;101045.72;108020;1291;22038;-78
2023/05/13 03:47:01;;;;;;;14.90;10.30;;;;;;;9.92;48.62;101047.83;108309;1287;22015;-78
2023/05/13 03:49:30;;;;;;;17.70;10.30;;;;;;;9.99;48.57;101050.44;108302;1285;22002;-78
2023/05/13 03:52:00;;;;;;;14.10;9.80;;;;;;;10.05;48.50;101052.39;108348;1287;21998;-79
2023/05/13 03:54:44;;;;;;;18.20;10.40;;;;;;;10.12;48.53;101056.91;108325;1287;22238;-79
2023/05/13 03:57:25;;;;;;;17.20;9.90;;;;;;;10.20;48.45;101060.89;107955;1292;22042;-78
2023/05/13 03:59:58;;;;;;;17.10;11.10;;;;;;;10.29;48.49;101066.76;107936;1292;21971;-79
2023/05/13 04:02:34;;;;;;;18.50;10.70;;;;;;;10.38;48.23;101068.64;107965;1291;22014;-79
2023/05/13 04:05:14;;;;;;;13.90;9.90;;;;;;;10.45;48.09;101071.43;108002;1292;22028;-80
2023/05/13 04:07:56;;;;;;;14.70;10.60;;;;;;;10.51;47.87;101075.77;108018;1292;22265;-80
2023/05/13 04:10:30;;;;;;;15.10;11.50;;;;;;;10.61;47.85;101079.54;108040;1292;22277;-80
2023/05/13 04:13:03;;;;;;;17.70;10.60;;;;;;;10.71;47.72;101080.64;108134;1294;22240;-80
2023/05/13 04:15:32;;;;;;;15.80;10.20;;;;;;;10.80;47.48;101079.20;108056;1291;22072;-80
2023/05/13 04:18:06;;;;;;;13.90;10.10;;;;;;;10.89;47.37;101079.13;107910;1295;22014;-79
2023/05/13 04:20:39;;;;;;;13.30;10.90;;;;;;;11.01;47.37;101081.75;108023;1296;22185;-80
2023/05/13 04:23:09;;;;;;;12.90;8.80;;;;;;;11.16;47.17;101083.08;107868;1295;22084;-80
2023/05/13 04:25:40;;;;;;;12.20;9.90;;;;;;;11.31;46.79;101085.27;107916;1296;23847;-81
2023/05/13 04:28:09;;;;;;;11.40;9.70;;;;;;;11.49;46.80;101084.91;107724;1297;22471;-80
2023/05/13 04:30:44;;;;;;;17.30;8.70;;;;;;;11.66;46.54;101086.13;107719;1294;22011;-80
2023/05/13 04:33:13;;;;;;;11.90;9.80;;;;;;;11.91;46.43;101084.01;107867;1294;22011;-81
2023/05/13 04:35:46;;;;;;;13.70;8.80;;;;;;;12.22;46.36;101085.09;108088;1289;22001;-79
2023/05/13 04:38:16;;;;;;;18.50;9.00;;;;;;;12.60;45.93;101086.79;108491;1288;23644;-79
2023/05/13 04:40:48;;;;;;;13.80;8.90;;;;;;;12.94;45.59;101086.98;108447;1288;22340;-79
2023/05/13 04:43:25;;;;;;;11.90;8.40;;;;;;;13.39;45.33;101088.86;108306;1288;22024;-81
2023/05/13 04:46:06;;;;;;;11.70;8.20;;;;;;;13.88;44.36;101089.59;108452;1288;22037;-80
2023/05/13 04:48:55;;;;;;;11.80;9.20;;;;;;;14.15;42.60;101089.23;108430;1287;21994;-79
2023/05/13 04:51:59;;;;;;;10.90;8.30;;;;;;;14.41;42.58;101093.06;108325;1288;22050;-78
2023/05/13 04:54:56;;;;;;;13.80;8.10;;;;;;;14.77;42.15;101092.23;108388;1289;22001;-79
2023/05/13 04:57:50;;;;;;;13.30;7.80;;;;;;;15.13;41.84;101090.85;108405;1288;23062;-80
2023/05/13 05:00:36;;;;;;;11.00;8.30;;;;;;;15.42;40.58;101093.19;108369;1288;22004;-78
2023/05/13 05:03:27;;;;;;;10.30;8.00;;;;;;;15.53;40.35;101089.73;108427;1288;23060;-78
2023/05/13 05:06:33;;;;;;;13.00;8.00;;;;;;;15.73;40.25;101090.73;108454;1288;21999;-79
2023/05/13 05:09:22;;;;;;;12.20;8.60;;;;;;;16.00;40.07;101092.96;108419;1288;23828;-78
2023/05/13 05:12:10;;;;;;;14.70;8.40;;;;;;;16.29;39.33;101100.28;108062;1292;21813;-78
2023/05/13 05:15:14;;;;;;;8.60;7.00;;;;;;;16.44;38.40;101103.59;107889;1292;22002;-78
2023/05/13 05:17:48;;;;;;;7.50;6.40;;;;;;;16.79;38.66;101103.77;107546;1297;22018;-78
2023/05/13 05:20:31;;;;;;;11.60;6.40;;;;;;;17.10;38.48;101101.64;107428;1297;22019;-78
2023/05/13 05:23:09;;;;;;;12.00;6.30;;;;;;;17.38;38.02;101107.38;107585;1297;22009;-79
2023/05/13 05:26:00;;;;;;;7.10;6.30;;;;;;;17.58;37.39;101109.81;107703;1296;22001;-79
2023/05/13 05:29:05;;;;;;;9.10;7.00;;;;;;;17.81;37.16;101106.05;107703;1296;22012;-79
2023/05/13 05:32:07;;;;;;;8.30;6.80;;;;;;;18.08;36.88;101110.50;108050;1291;22021;-79
2023/05/13 05:35:02;;;;;;;8.50;5.50;;;;;;;18.38;36.05;101113.74;108131;1291;23062;-79
2023/05/13 05:37:44;;;;;;;8.80;5.50;;;;;;;18.38;35.07;101113.21;108194;1291;22005;-78
2023/05/13 05:40:20;;;;;;;12.60;5.70;;;;;;;18.33;35.02;101109.23;108386;1291;22172;-78
2023/05/13 05:43:06;;;;;;;8.60;5.60;;;;;;;18.53;35.25;101110.21;108356;1291;22482;-79
2023/05/13 05:46:07;;;;;;;17.80;6.30;;;;;;;18.69;34.67;101114.73;108340;1291;23629;-79
2023/05/13 05:48:49;;;;;;;8.20;5.80;;;;;;;18.73;34.28;101115.55;108400;1285;22010;-80
2023/05/13 05:51:45;;;;;;;9.60;5.70;;;;;;;18.64;33.86;101116.94;108670;1285;22275;-78
2023/05/13 05:54:33;;;;;;;9.30;5.10;;;;;;;18.80;34.29;101118.35;108503;1285;21982;-78
2023/05/13 05:57:25;;;;;;;10.40;5.00;;;;;;;19.00;33.30;101122.26;108757;1285;21993;-78
2023/05/13 06:00:02;;;;;;;7.40;4.60;;;;;;;18.92;33.07;101125.70;108389;1289;22006;-80
2023/05/13 06:02:50;;;;;;;7.30;4.90;;;;;;;19.03;33.25;101125.57;108358;1292;22446;-79
2023/05/13 06:05:40;;;;;;;6.60;4.70;;;;;;;19.32;32.62;101123.64;108150;1292;23131;-83
2023/05/13 06:08:28;;;;;;;;;;;;;;;19.24;32.23;101127.64;108150;1292;21960;-83
2023/05/13 06:11:14;;;;;;;6.50;5.00;;;;;;;19.08;32.43;101126.70;108200;1292;21999;-81
2023/05/13 06:13:58;;;;;;;7.30;4.40;;;;;;;19.02;32.52;101125.14;108310;1292;22837;-80
2023/05/13 06:16:42;;;;;;;9.80;4.70;;;;;;;19.15;32.53;101125.71;107891;1292;22091;-83
2023/05/13 06:19:43;;;;;;;8.80;4.20;;;;;;;19.23;32.18;101126.47;107964;1295;22556;-80
2023/05/13 06:22:33;;;;;;;10.10;4.20;;;;;;;19.15;31.88;101125.02;108538;1290;22003;-78
2023/05/13 06:25:10;;;;;;;9.20;5.20;;;;;;;19.08;32.12;101126.15;108327;1290;21995;-77
2023/05/13 06:27:44;;;;;;;5.50;4.00;;;;;;;19.30;32.49;101126.94;108116;1289;22005;-78
2023/05/13 06:30:31;;;;;;;6.30;4.40;;;;;;;19.52;31.99;101125.94;108150;1290;23743;-79
2023/05/13 06:33:07;;;;;;;6.80;4.30;;;;;;;19.91;32.45;101124.34;108256;1290;22028;-79
2023/05/13 06:35:48;;;;;;;7.70;3.70;;;;;;;20.28;31.20;101125.28;108579;1286;22203;-78
2023/05/13 06:38:25;;;;;;;7.90;3.40;;;;;;;20.55;30.68;101123.48;108314;1292;24332;-82
2023/05/13 06:41:01;;;;;;;5.10;3.50;;;;;;;20.91;30.79;101123.88;108237;1296;22517;-79
2023/05/13 06:43:34;;;;;;;6.10;3.40;;;;;;;21.12;29.43;101127.97;107807;1296;23776;-80
2023/05/13 06:46:16;;;;;;;4.50;3.10;;;;;;;21.15;29.18;101124.73;107885;1295;23759;-77
2023/05/13 06:48:46;;;;;;;5.10;3.40;;;;;;;21.13;29.18;101123.84;107758;1296;23844;-77
2023/05/13 06:51:16;;;;;;;5.30;3.30;;;;;;;21.06;29.02;101124.30;107796;1296;22013;-77
2023/05/13 06:53:46;;;;;;;8.80;3.50;;;;;;;21.06;29.02;101125.50;107859;1295;22056;-78
2023/05/13 06:56:15;;;;;;;4.60;2.90;;;;;;;21.09;28.97;101128.16;107879;1291;23878;-77
2023/05/13 06:58:44;;;;;;;4.10;2.90;;;;;;;21.01;28.88;101124.64;108343;1286;22001;-78
2023/05/13 07:01:15;;;;;;;6.60;2.90;;;;;;;21.04;28.95;101131.48;108690;1285;21708;-78
2023/05/13 07:03:45;;;;;;;12.20;3.50;;;;;;;21.10;28.67;101124.54;108667;1285;22006;-78
2023/05/13 07:06:14;;;;;;;4.50;3.40;;;;;;;21.19;28.46;101128.13;108655;1285;22850;-80
2023/05/13 07:08:43;;;;;;;8.40;3.00;;;;;;;21.21;28.06;101125.52;108455;1285;22009;-79
2023/05/13 07:11:13;;;;;;;7.80;2.70;;;;;;;21.24;28.35;101121.44;108599;1285;21686;-77
2023/05/13 07:13:43;;;;;;;10.90;3.60;;;;;;;21.48;28.70;101121.34;108587;1285;22134;-79
2023/05/13 07:16:22;;;;;;;6.90;2.80;;;;;;;21.65;27.53;101122.46;108403;1290;22021;-77
2023/05/13 07:18:59;;;;;;;8.00;3.40;;;;;;;21.51;27.47;101119.73;108381;1290;21884;-77
2023/05/13 07:21:43;;;;;;;7.90;3.20;;;;;;;21.63;27.94;101122.05;108280;1290;22491;-77
2023/05/13 07:24:25;;;;;;;12.70;3.50;;;;;;;22.09;27.91;101120.48;108434;1290;22786;-76
2023/05/13 07:27:00;;;;;;;11.30;3.30;;;;;;;22.45;26.14;101124.52;108343;1290;21964;-77
2023/05/13 07:29:40;;;;;;;10.50;2.90;;;;;;;22.37;25.42;101119.48;108343;1290;22000;-80
2023/05/13 07:32:17;;;;;;;10.80;2.80;;;;;;;22.45;25.55;101119.42;108034;1291;22082;-80
2023/05/13 07:34:48;;;;;;;7.80;3.30;;;;;;;22.54;24.95;101116.40;108052;1292;22001;-80
2023/05/13 07:37:27;;;;;;;8.00;3.00;;;;;;;22.75;24.86;101119.08;108438;1291;23730;-78
2023/05/13 07:40:23;;;;;;;19.40;3.20;;;;;;;22.81;24.26;101121.48;108764;1291;22020;-77
2023/05/13 07:42:56;;;;;;;4.20;3.00;;;;;;;22.71;24.30;101119.21;108460;1291;22113;-78
2023/05/13 07:45:29;;;;;;;9.40;2.80;;;;;;;22.69;24.03;101119.77;109012;1291;22009;-78
2023/05/13 07:48:18;;;;;;;8.00;2.70;;;;;;;22.71;24.05;101118.52;108792;1291;22110;-77
2023/05/13 07:51:01;;;;;;;7.80;3.20;;;;;;;22.93;24.32;101118.36;107922;1294;22320;-78
2023/05/13 07:53:35;;;;;;;41.00;5.80;;;;;;;23.28;23.41;101120.50;107794;1299;23742;-79
2023/05/13 07:56:13;;;;;;;8.20;2.40;;;;;;;23.36;22.89;101126.42;107819;1291;22829;-79
2023/05/13 07:58:54;;;;;;;8.70;2.30;;;;;;;23.47;23.15;101117.77;107708;1298;22889;-78
2023/05/13 08:01:25;;;;;;;7.30;2.50;;;;;;;23.64;22.60;101122.60;107184;1303;22196;-78
2023/05/13 08:04:14;;;;;;;8.80;3.00;;;;;;;23.55;21.91;101125.97;107480;1297;22009;-78
2023/05/13 08:07:44;;;;;;;6.70;2.60;;;;;;;23.52;22.19;101118.19;108020;1295;544021;-78
2023/05/13 08:10:26;;;;;;;3.70;2.00;;;;;;;23.53;22.00;101126.48;109684;1273;21981;-77
2023/05/13 08:13:09;;;;;;;27.70;3.80;;;;;;;23.31;22.11;101120.77;109760;1273;23612;-77
2023/05/13 08:17:08;;;;;;;9.10;2.10;;;;;;;23.25;22.23;101123.58;111079;1264;22010;-78
2023/05/13 08:20:13;;;;;;;3.90;2.00;;;;;;;23.20;22.10;101117.55;106991;1273;3299055;-78
2023/05/13 08:23:12;;;;;;;14.50;3.90;;;;;;;23.27;22.21;101125.20;109603;1273;21977;-78
2023/05/13 08:26:04;;;;;;;11.60;2.50;;;;;;;23.30;21.53;101126.70;109489;1270;22030;-77
2023/05/13 08:28:57;;;;;;;5.50;2.60;;;;;;;23.12;21.86;101125.48;109479;1273;21993;-77
2023/05/13 08:31:31;;;;;;;8.50;2.80;;;;;;;23.00;22.45;101122.63;109501;1273;22999;-77
2023/05/13 08:34:05;;;;;;;8.20;2.60;;;;;;;23.46;22.72;101121.55;109135;1278;22072;-78
2023/05/13 08:36:59;;;;;;;5.60;3.50;;;;;;;23.80;22.36;101123.80;109337;1274;23637;-78
2023/05/13 08:39:38;;;;;;;5.90;2.90;;;;;;;24.01;22.52;101123.29;109441;1274;23042;-78
2023/05/13 08:42:12;;;;;;;6.40;2.50;;;;;;;24.31;22.10;101121.34;109228;1278;22734;-79
2023/05/13 08:45:00;;;;;;;5.60;2.50;;;;;;;24.40;21.63;101119.59;109191;1276;21990;-78
2023/05/13 08:47:56;;;;;;;7.00;3.40;;;;;;;24.10;21.49;101118.30;109210;1268;22010;-79
2023/05/13 08:50:30;;;;;;;12.10;3.10;;;;;;;23.65;21.56;101118.62;109127;1276;22016;-78
2023/05/13 08:52:59;;;;;;;4.20;2.40;;;;;;;23.31;22.44;101122.01;109391;1269;22537;-78
2023/05/13 08:55:32;;;;;;;12.40;4.00;;;;;;;23.36;22.22;101115.80;109479;1273;21983;-79
2023/05/13 08:58:06;;;;;;;6.60;2.80;;;;;;;23.19;22.14;101122.79;110355;1267;21975;-77
2023/05/13 09:00:36;;;;;;;4.20;2.20;;;;;;;22.88;22.14;101120.56;110583;1261;22036;-77
2023/05/13 09:03:06;;;;;;;9.80;2.00;;;;;;;22.89;22.60;101115.52;110952;1261;22685;-77
2023/05/13 09:05:36;;;;;;;5.70;2.40;;;;;;;23.11;22.14;101120.34;110900;1261;21985;-76
2023/05/13 09:08:08;;;;;;;9.90;2.30;;;;;;;23.10;21.84;101113.89;110748;1261;23622;-78
2023/05/13 09:10:44;;;;;;;8.40;3.60;;;;;;;23.12;21.90;101112.70;110709;1261;22149;-78
2023/05/13 09:13:36;;;;;;;5.60;1.90;;;;;;;23.15;21.45;101118.70;110736;1260;21991;-78
2023/05/13 09:16:13;;;;;;;9.90;2.50;;;;;;;22.96;21.59;101110.38;110968;1261;22121;-77
2023/05/13 09:19:26;;;;;;;;;;;;;;;;;;;;;
2023/05/13 09:22:31;;;;;;;15.20;2.50;;;;;;;22.51;22.20;101112.75;110982;1261;21988;-76
2023/05/13 09:25:11;;;;;;;9.90;2.20;;;;;;;22.80;22.09;101108.92;110932;1261;23598;-78
2023/05/13 09:27:50;;;;;;;6.30;2.00;;;;;;;23.17;22.15;101104.45;111095;1261;23785;-78
2023/05/13 09:30:21;;;;;;;12.00;2.30;;;;;;;23.69;21.80;101105.66;110592;1261;22179;-78
2023/05/13 09:33:14;;;;;;;17.50;2.80;;;;;;;24.01;21.06;101099.69;110729;1261;23008;-76
2023/05/13 09:35:53;;;;;;;7.80;2.10;;;;;;;24.15;20.54;101109.20;110518;1264;21969;-77
2023/05/13 09:38:30;;;;;;;6.60;2.40;;;;;;;24.06;20.24;101105.47;110360;1266;23731;-78
2023/05/13 09:41:18;;;;;;;8.10;4.30;;;;;;;24.11;20.54;101094.90;110275;1262;23711;-77
2023/05/13 09:47:55;;;;;;;10.60;2.30;;;;;;;23.63;20.92;101095.13;109553;1272;23723;-77
2023/05/13 09:51:01;;;;;;;4.30;1.90;;;;;;;23.47;20.89;101096.27;109524;1272;22225;-77
2023/05/13 09:54:04;;;;;;;6.90;2.10;;;;;;;23.43;20.85;101096.42;109454;1271;21981;-77
2023/05/13 09:56:59;;;;;;;6.00;2.10;;;;;;;23.33;20.84;101091.49;109573;1271;22750;-77
2023/05/13 09:59:46;;;;;;;;;;;;;;;;;;;;;
2023/05/13 10:02:21;;;;;;;6.40;2.70;;;;;;;23.32;20.61;101086.10;109851;1271;21992;-78
2023/05/13 10:05:09;;;;;;;5.20;3.10;;;;;;;23.52;20.83;101086.73;109451;1271;23650;-78
2023/05/13 10:07:39;;;;;;;12.70;4.20;;;;;;;23.52;20.85;101087.47;109471;1271;23631;-77
2023/05/13 10:10:10;;;;;;;;;;;;;;;23.59;20.86;101083.05;109628;1271;22750;-79
2023/05/13 10:12:41;;;;;;;6.60;2.60;;;;;;;23.69;20.77;101074.20;109790;1265;21997;-79
2023/05/13 10:15:11;;;;;;;7.20;2.90;;;;;;;23.64;20.52;101072.98;110285;1268;21973;-81
2023/05/13 10:17:41;;;;;;;7.90;2.70;;;;;;;23.46;20.52;101082.80;110235;1268;22132;-79
2023/05/13 10:20:11;;;;;;;7.50;1.90;;;;;;;23.11;20.93;101079.95;110242;1268;21973;-78
2023/05/13 10:22:42;;;;;;;8.20;3.40;;;;;;;22.81;21.31;101071.40;110063;1268;24966;-78
2023/05/13 10:25:22;;;;;;;5.90;2.10;;;;;;;23.00;21.32;101073.15;110466;1262;21970;-79
2023/05/13 10:28:07;;;;;;;8.00;2.10;;;;;;;22.93;21.03;101066.62;110520;1265;21988;-78
2023/05/13 10:30:41;;;;;;;3.60;1.60;;;;;;;22.72;21.06;101068.39;110658;1265;23103;-78
2023/05/13 10:33:29;;;;;;;12.80;2.30;;;;;;;22.44;21.51;101066.14;110549;1265;21973;-78
2023/05/13 10:36:54;;;;;;;4.50;1.90;;;;;;;22.32;21.75;101064.68;110653;1265;22020;-82
2023/05/13 10:39:50;;;;;;;7.10;1.90;;;;;;;21.98;22.08;101072.56;110888;1265;24450;-81
2023/05/13 10:42:55;;;;;;;11.70;2.50;;;;;;;21.77;22.39;101071.11;110694;1264;21967;-80
2023/05/13 10:45:26;;;;;;;8.10;2.90;;;;;;;21.79;22.49;101064.16;109736;1268;21973;-80
2023/05/13 10:47:55;;;;;;;7.50;2.00;;;;;;;21.89;22.43;101074.29;110162;1268;23851;-80
2023/05/13 10:50:30;;;;;;;7.30;2.60;;;;;;;21.96;22.33;101074.78;110156;1268;22733;-80
2023/05/13 10:53:22;;;;;;;5.40;2.70;;;;;;;21.82;22.32;101071.60;110542;1268;22015;-81
2023/05/13 10:56:02;;;;;;;6.70;2.70;;;;;;;21.57;22.71;101076.48;110232;1268;21999;-82
2023/05/13 10:58:42;;;;;;;6.60;1.80;;;;;;;21.40;22.86;101075.70;110109;1268;21983;-81
2023/05/13 11:01:30;;;;;;;10.70;2.30;;;;;;;21.26;22.80;101074.02;110168;1268;22080;-81
2023/05/13 11:04:04;;;;;;;6.20;2.40;;;;;;;21.18;22.62;101066.25;110113;1268;22008;-80
2023/05/13 11:06:39;;;;;;;5.20;2.10;;;;;;;21.22;22.85;101067.36;110306;1268;22949;-80
2023/05/13 11:09:36;;;;;;;6.90;2.80;;;;;;;21.28;22.94;101063.58;110512;1265;21979;-80
2023/05/13 11:12:14;;;;;;;6.00;2.60;;;;;;;21.35;23.12;101064.04;109997;1268;23785;-81
2023/05/13 11:14:43;;;;;;;6.30;2.20;;;;;;;21.35;23.15;101063.88;110267;1268;22023;-82
2023/05/13 11:17:18;;;;;;;9.70;2.60;;;;;;;21.27;22.88;101067.93;110287;1262;22881;-82
2023/05/13 11:19:50;;;;;;;6.90;3.20;;;;;;;21.22;23.29;101064.75;110040;1268;23727;-81
2023/05/13 11:22:23;;;;;;;5.90;2.00;;;;;;;21.33;23.33;101071.91;110224;1262;22036;-82
2023/05/13 11:25:08;;;;;;;6.50;2.10;;;;;;;21.36;22.91;101069.39;110928;1262;23729;-80
2023/05/13 11:27:41;;;;;;;7.60;2.10;;;;;;;21.27;22.93;101069.73;110733;1262;22008;-81
2023/05/13 11:30:24;;;;;;;8.60;1.90;;;;;;;21.28;23.42;101066.46;111406;1261;21962;-80
2023/05/13 11:33:11;;;;;;;10.10;2.60;;;;;;;21.31;23.55;101070.34;111326;1262;22945;-79
2023/05/13 11:35:55;;;;;;;12.70;2.50;;;;;;;21.32;23.45;101062.62;110502;1267;23630;-83
2023/05/13 11:38:33;;;;;;;5.80;2.90;;;;;;;21.41;23.52;101059.17;110487;1268;23644;-82
2023/05/13 11:41:16;;;;;;;3.90;2.40;;;;;;;21.49;23.55;101052.25;111520;1249;21974;-81
2023/05/13 11:44:01;;;;;;;4.20;2.30;;;;;;;21.57;23.51;101056.76;111201;1250;22724;-82
2023/05/13 11:46:49;;;;;;;10.40;2.40;;;;;;;21.65;23.44;101058.85;110962;1262;21953;-81
2023/05/13 11:49:33;;;;;;;9.30;2.50;;;;;;;21.69;23.43;101060.68;110788;1264;24506;-81
2023/05/13 11:52:14;;;;;;;5.90;2.30;;;;;;;21.65;23.11;101065.08;110923;1264;22725;-81
2023/05/13 11:54:56;;;;;;;4.90;2.30;;;;;;;21.54;23.17;101059.30;110710;1264;23684;-81
2023/05/13 11:57:31;;;;;;;7.80;1.90;;;;;;;21.46;23.22;101063.56;110463;1265;21971;-82
2023/05/13 12:00:09;;;;;;;8.10;2.40;;;;;;;21.34;23.51;101065.31;110210;1265;24745;-82
2023/05/13 12:02:39;;;;;;;9.30;3.20;;;;;;;21.36;23.73;101064.85;110006;1265;21981;-81
2023/05/13 12:05:11;;;;;;;5.10;2.80;;;;;;;21.51;23.70;101060.23;110666;1265;21974;-81
2023/05/13 12:07:40;;;;;;;;;;;;;;;21.60;23.30;101061.17;110468;1265;22704;-81
2023/05/13 12:10:11;;;;;;;4.00;2.40;;;;;;;21.44;23.13;101059.98;110604;1265;22041;-81
2023/05/13 12:12:56;;;;;;;5.80;3.00;;;;;;;21.41;23.31;101059.88;110704;1265;22894;-81
2023/05/13 12:15:32;;;;;;;13.00;11.00;;;;;;;21.50;23.49;101057.33;111153;1259;23025;-81
2023/05/13 12:18:11;;;;;;;5.00;3.40;;;;;;;21.57;23.24;101056.27;111028;1263;23007;-82
2023/05/13 12:20:43;;;;;;;8.00;4.20;;;;;;;21.54;22.93;101058.08;110929;1262;23622;-81
2023/05/13 12:23:21;;;;;;;5.50;2.30;;;;;;;21.51;22.89;101054.45;111064;1262;21990;-81
2023/05/13 12:26:17;;;;;;;8.10;2.70;;;;;;;21.58;22.92;101056.38;110450;1269;22013;-82
2023/05/13 12:28:59;;;;;;;5.00;2.30;;;;;;;21.60;22.64;101048.11;110178;1267;21987;-81
2023/05/13 12:31:29;;;;;;;7.10;2.60;;;;;;;21.60;22.74;101054.48;110254;1267;22065;-82
2023/05/13 12:34:29;;;;;;;5.30;3.00;;;;;;;21.60;22.88;101048.08;110262;1268;23807;-82
2023/05/13 12:37:12;;;;;;;8.00;4.80;;;;;;;21.54;22.98;101045.53;110228;1268;22026;-82
2023/05/13 12:40:14;;;;;;;7.90;4.30;;;;;;;21.41;23.12;101052.41;110187;1268;22009;-81